Flight Briefing for CPX328

Departure Arrival
Los Angeles International Airport (KLAX)
Click to view FAA NOTAMS
Kansas City International Airport (KMCI)
Click to view FAA NOTAMS
Departure Time Arrival Time
N/A N/A
Aircraft Distance
B767-300BDSF 1184nm
Departure METAR Arrival METAR
KLAX 271153Z 14003KT 10SM FEW018 FEW070 11/07 A2996 RMK AO2 SLP144 70008 T01060067 10133 20106 56003 KMCI 271153Z 19008KT 10SM SCT090 BKN130 OVC200 19/16 A2981 RMK AO2 RAE39 SLP084 P0005 60022 70022 T01890161 10217 20183 58026
Suggested Route
ORCKA3 LAS J146 DVC GCK J28 ICT EMP JHAWK6


View recent IFR Routes data
Notes
METROAIR CARGO SUPPORT

Charts and Procedures

Charts for KLAX
No chart available
Charts for KMCI
No chart available

Windy.com Weather Map